Startpagina
METAR-TAF:

METAR-TAF

Vliegvelden :

Villavicencio, Colombia

breedte: 04-10N, lengte: 073-37W, hoogte: 423 m

Actueel weer

Dit bericht is 1 uur en het 6 minuten geleden gemaakt, om 22:00 UTC
Wind 2 kt uit variabele richting
Temperatuur 23°C
Vochtigheid 94%
Druk 1016 hPa
Zicht: 8000 m
Gebroken wolken op 1500 ft
Verspreide wolken op 8000 ft
lichte motregen

METAR: SKVV 172200Z VRB02KT 8000 -DZ BKN015 SCT080 23/22 A3001

Tijdstip: 18:06 (23:06 UTC)


TAF: ontbreekt

Waarnemingen en weersverwachtingen van meer dan 4000 vliegvelden (METAR en TAF).

De beschikbare stations zijn de gele en rode punten op de kaart.

Ga met uw muis naar het station om de naam te zien.

Klik dan om waarnemingen en weersverwachtingen te zien.

kaart wijzigen: klik op de groene knoppen met een zwart kruis om in te zoomen, op de groene knop met een streepje om uit te zoomen of op de groene pijlen voor aangrenzende kaarten.


METAR-TAF: